Airfield :
LOGIN :

Register | Disclaimer

   EN    FR    IT 

 










Legend :    VFR   Marginal VFR   IFR   Intensive IFR   Very Intensive IFR
Visi :
Ceiling :
>= 8 km
>= 3000ft
5 to 8 km
1000 to 3000 ft
1500m to 5 km
500 to 1000 ft
800 to 1500m
200 to 500 ft
< 800m
< 200 ft
Symbols :   Thunderstorms  Fog  Heavy snow  Heavy precipitations  Wind > 20 kt
SIGMETs :     Misc.  Thunderstorms  Icing  Turbulence  Mountain Waves  Volcanic Ashes







- Airport Elevation : 142 ft
- IATA code : ALC


LEAL - Alicante

CURRENT METAR :
  • 201900Z 32005KT CAVOK 10/05 Q1012 NOSIG

EXPIRED METARs :
  • 201830Z 31008KT CAVOK 11/05 Q1011 NOSIG
  • 201800Z 30007KT 9999 FEW065 12/06 Q1011 NOSIG
  • 201730Z 30006KT 9999 FEW065 13/06 Q1011 NOSIG
  • 201700Z 31005KT 250V340 9999 FEW035 SCT065 13/06 Q1010 NOSIG
  • 201630Z 32003KT 300V040 9999 FEW035 SCT055 12/08 Q1010 NOSIG

TAF TAF LEAL
Valid from the 20 at 18:00 until the 21 at 18:00 UTC


201700Z 2018/2118 31009KT 9999 FEW030 TX14/2113Z TN07/2106Z
TEMPO 2018/2021 VRB03KT
No reported NOTAMs for that airfield.



MET'MAP, your aeronautical weather chart ! - Copyright ORBIFLY December 2007 - Disclaimer

ORBIFLY MET'MAP TEAM :

Programming & Development : Alexandra Zaïnal
Concept & Development : Baudouin d'Aumeries
Co-Development & Prog : Marc-Olivier Méhu
Technical & hardware support : Manuel Goepfert

Contact : metmap@orbifly.com




SOURCES & CREDITS :

   NOAA